Time;durP1;ratioP1;P1;durP2;ratioP2;P2;SDS_P1;SDS_P2;PMS_P1;PMS_P2;Temp;Humidity;BMP_temperature;BMP_pressure;BME280_temperature;BME280_humidity;BME280_pressure;Samples;Min_cycle;Max_cycle;Signal;HPM_P1;HPM_P2
2023/04/10 00:02:02;;;;;;;15.00;9.50;;;;;;;13.19;66.85;101016.88;107635;1255;65025;-83
2023/04/10 00:04:39;;;;;;;13.20;9.80;;;;;;;13.22;66.94;101019.86;107905;1254;59622;-84
2023/04/10 00:07:13;;;;;;;12.10;9.50;;;;;;;13.25;67.05;101017.27;107652;1254;59637;-84
2023/04/10 00:09:44;;;;;;;14.10;10.10;;;;;;;13.26;67.09;101016.70;108143;1254;64929;-84
2023/04/10 00:12:17;;;;;;;12.40;9.80;;;;;;;13.26;67.13;101018.95;108154;1257;62333;-82
2023/04/10 00:15:03;;;;;;;14.90;10.50;;;;;;;13.25;67.14;101019.45;107692;1256;64085;-83
2023/04/10 00:17:37;;;;;;;12.80;9.70;;;;;;;13.23;67.27;101018.48;108438;1257;57500;-82
2023/04/10 00:20:12;;;;;;;13.20;10.40;;;;;;;13.23;67.21;101016.23;108173;1255;59664;-82
2023/04/10 00:22:42;;;;;;;11.10;9.00;;;;;;;13.26;66.96;101016.14;108032;1262;65094;-84
2023/04/10 00:25:13;;;;;;;13.50;9.70;;;;;;;13.31;67.05;101013.44;108385;1256;61644;-84
2023/04/10 00:27:44;;;;;;;15.40;10.70;;;;;;;13.34;67.01;101011.80;108312;1256;65287;-84
2023/04/10 00:30:12;;;;;;;13.90;10.30;;;;;;;13.34;66.99;101008.86;108218;1255;59270;-85
2023/04/10 00:33:05;;;;;;;12.40;10.20;;;;;;;13.33;66.95;101004.48;107861;1256;59177;-84
2023/04/10 00:35:37;;;;;;;15.20;10.10;;;;;;;13.29;66.95;101003.94;107983;1256;65878;-82
2023/04/10 00:38:07;;;;;;;14.60;10.50;;;;;;;13.24;66.92;100998.88;108549;1256;61425;-82
2023/04/10 00:40:41;;;;;;;13.70;9.90;;;;;;;13.24;66.87;100994.51;108088;1256;64984;-82
2023/04/10 00:43:14;;;;;;;13.20;10.10;;;;;;;13.26;66.86;100993.22;108428;1257;58750;-83
2023/04/10 00:45:45;;;;;;;16.20;12.10;;;;;;;13.27;66.95;100998.45;108676;1257;60688;-83
2023/04/10 00:48:19;;;;;;;16.00;11.00;;;;;;;13.31;67.24;101001.27;108830;1259;66287;-82
2023/04/10 00:50:47;;;;;;;15.40;11.50;;;;;;;13.32;67.15;101005.99;108960;1256;62794;-82
2023/04/10 00:53:16;;;;;;;16.90;12.00;;;;;;;13.30;67.08;101006.83;108769;1256;64833;-81
2023/04/10 00:55:45;;;;;;;16.80;12.00;;;;;;;13.30;66.99;101009.99;108938;1255;58506;-81
2023/04/10 00:58:13;;;;;;;15.70;11.10;;;;;;;13.28;67.02;101012.84;108710;1254;61055;-81
2023/04/10 01:00:52;;;;;;;15.40;11.10;;;;;;;13.32;66.89;101012.68;108335;1255;66469;-82
2023/04/10 01:03:21;;;;;;;16.50;12.30;;;;;;;13.38;66.97;101010.98;108021;1257;61794;-81
2023/04/10 01:06:02;;;;;;;16.30;11.90;;;;;;;13.43;67.01;101012.37;108282;1255;64042;-82
2023/04/10 01:08:35;;;;;;;18.60;12.30;;;;;;;13.43;66.94;101012.85;107642;1257;58853;-82
2023/04/10 01:11:17;;;;;;;16.90;13.80;;;;;;;13.42;66.95;101012.81;108281;1253;58389;-82
2023/04/10 01:14:00;;;;;;;16.80;13.20;;;;;;;13.38;67.09;101009.69;108673;1253;65217;-82
2023/04/10 01:16:35;;;;;;;16.90;12.20;;;;;;;13.39;67.07;101009.15;109419;1253;61818;-82
2023/04/10 01:19:33;;;;;;;19.80;12.20;;;;;;;13.44;66.80;101008.02;109152;1254;63849;-82
2023/04/10 01:22:01;;;;;;;18.90;12.30;;;;;;;13.49;66.57;101005.68;109123;1253;58832;-82
2023/04/10 01:25:18;;;;;;;16.10;11.60;;;;;;;13.47;66.59;101005.11;109197;1253;59043;-82
2023/04/10 01:27:50;;;;;;;18.60;13.50;;;;;;;13.41;66.71;101006.29;108080;1255;66444;-81
2023/04/10 01:30:19;;;;;;;18.00;13.50;;;;;;;13.39;66.75;101006.32;108480;1254;61449;-82
2023/04/10 01:32:52;;;;;;;17.00;12.90;;;;;;;13.35;66.74;101008.44;108354;1253;63702;-81
2023/04/10 01:35:23;;;;;;;18.80;12.20;;;;;;;13.35;66.77;101000.79;107857;1253;60361;-81
2023/04/10 01:37:54;;;;;;;21.40;13.00;;;;;;;13.39;66.74;101002.60;108274;1253;58685;-82
2023/04/10 01:40:25;;;;;;;18.10;12.80;;;;;;;13.38;66.75;101000.70;108212;1253;65028;-82
2023/04/10 01:42:55;;;;;;;16.10;13.10;;;;;;;13.35;66.85;100997.42;108093;1254;62056;-82
2023/04/10 01:45:32;;;;;;;20.30;14.70;;;;;;;13.31;66.93;100999.73;107665;1254;64491;-82
2023/04/10 01:48:00;;;;;;;18.80;13.80;;;;;;;13.26;67.18;101004.20;108207;1253;58698;-82
2023/04/10 01:50:31;;;;;;;18.90;13.60;;;;;;;13.21;67.10;101003.86;107632;1253;60474;-82
2023/04/10 01:53:00;;;;;;;15.70;12.90;;;;;;;13.23;67.12;101007.60;107387;1253;65769;-82
2023/04/10 01:55:29;;;;;;;17.70;14.20;;;;;;;13.26;67.10;101004.36;107903;1253;62653;-81
2023/04/10 01:58:03;;;;;;;20.20;14.50;;;;;;;13.26;67.18;101008.01;107870;1254;63701;-82
2023/04/10 02:00:41;;;;;;;18.50;14.90;;;;;;;13.24;67.32;101005.52;108216;1254;58652;-81
2023/04/10 02:03:11;;;;;;;18.80;14.90;;;;;;;13.23;67.51;101003.89;108240;1253;59534;-83
2023/04/10 02:06:02;;;;;;;22.70;15.80;;;;;;;13.21;67.58;101003.66;108135;1253;65159;-82
2023/04/10 02:08:40;;;;;;;21.90;17.00;;;;;;;13.18;67.73;101005.47;107948;1253;61299;-82
2023/04/10 02:11:12;;;;;;;20.40;15.50;;;;;;;13.16;67.68;101002.70;108428;1254;65033;-83
2023/04/10 02:13:41;;;;;;;20.80;16.10;;;;;;;13.18;67.68;101004.63;108486;1253;60438;-83
2023/04/10 02:16:10;;;;;;;21.00;15.80;;;;;;;13.22;67.44;101009.40;108460;1253;61454;-83
2023/04/10 02:19:03;;;;;;;20.50;16.50;;;;;;;13.22;67.65;101008.37;108334;1253;66255;-84
2023/04/10 02:21:33;;;;;;;21.00;17.30;;;;;;;13.18;67.74;101005.98;108562;1259;70122;-83
2023/04/10 02:24:07;;;;;;;20.30;15.80;;;;;;;13.16;67.99;101007.78;108769;1253;65107;-83
2023/04/10 02:26:57;;;;;;;22.40;16.30;;;;;;;13.19;68.09;101009.31;108475;1252;58400;-83
2023/04/10 02:29:37;;;;;;;22.60;16.20;;;;;;;13.23;67.92;101008.96;108522;1254;58432;-83
2023/04/10 02:32:07;;;;;;;23.30;17.40;;;;;;;13.27;67.79;101009.91;108223;1253;65137;-83
2023/04/10 02:34:35;;;;;;;23.90;18.00;;;;;;;13.29;67.78;101007.29;108818;1254;62655;-83
2023/04/10 02:37:07;;;;;;;22.70;17.60;;;;;;;13.31;67.91;101008.88;108404;1253;64872;-83
2023/04/10 02:39:36;;;;;;;23.30;18.30;;;;;;;13.32;67.83;101012.13;108033;1253;60335;-82
2023/04/10 02:42:05;;;;;;;24.50;17.30;;;;;;;13.32;67.77;101011.98;108371;1253;60447;-82
2023/04/10 02:44:40;;;;;;;24.60;16.30;;;;;;;13.32;67.51;101013.89;107965;1254;65088;-82
2023/04/10 02:47:09;;;;;;;25.10;16.30;;;;;;;13.32;67.29;101013.23;107778;1254;62332;-83
2023/04/10 02:49:45;;;;;;;19.60;15.50;;;;;;;13.30;67.33;101014.55;107856;1253;64186;-83
2023/04/10 02:52:16;;;;;;;22.90;17.00;;;;;;;13.28;67.56;101014.96;108148;1253;58315;-81
2023/04/10 02:54:46;;;;;;;23.10;16.30;;;;;;;13.26;67.74;101015.61;108338;1256;60473;-83
2023/04/10 02:57:15;;;;;;;20.50;16.80;;;;;;;13.24;67.76;101016.16;107923;1254;66152;-84
2023/04/10 02:59:44;;;;;;;21.40;17.40;;;;;;;13.20;67.86;101018.22;108173;1253;71090;-82
2023/04/10 03:02:16;;;;;;;20.70;16.00;;;;;;;13.15;67.86;101017.04;108033;1253;65009;-82
2023/04/10 03:04:48;;;;;;;22.00;16.50;;;;;;;13.16;67.89;101018.91;108256;1253;60442;-83
2023/04/10 03:07:26;;;;;;;25.30;15.80;;;;;;;13.21;67.87;101017.95;107838;1253;59239;-84
2023/04/10 03:09:54;;;;;;;21.20;15.60;;;;;;;13.26;67.79;101020.01;108413;1253;66219;-82
2023/04/10 03:12:25;;;;;;;22.20;16.80;;;;;;;13.29;67.86;101015.70;108307;1253;62302;-82
2023/04/10 03:14:54;;;;;;;20.10;16.30;;;;;;;13.30;67.75;101016.17;108609;1253;65296;-83
2023/04/10 03:17:25;;;;;;;21.20;17.30;;;;;;;13.25;67.74;101014.83;108154;1253;59155;-83
2023/04/10 03:19:54;;;;;;;20.60;17.10;;;;;;;13.20;67.92;101017.30;108385;1254;60466;-82
2023/04/10 03:22:22;;;;;;;20.70;15.80;;;;;;;13.17;67.83;101019.45;108343;1254;65254;-82
2023/04/10 03:24:52;;;;;;;21.30;15.20;;;;;;;13.22;67.85;101021.94;108315;1253;62472;-82
2023/04/10 03:27:26;;;;;;;18.80;16.10;;;;;;;13.29;67.70;101020.54;108360;1253;65022;-83
2023/04/10 03:29:55;;;;;;;21.00;17.20;;;;;;;13.29;67.63;101019.95;108415;1252;60375;-82
2023/04/10 03:32:27;;;;;;;20.10;17.90;;;;;;;13.26;67.58;101021.06;108225;1252;58632;-82
2023/04/10 03:34:57;;;;;;;23.60;17.20;;;;;;;13.23;67.68;101027.30;108274;1253;64939;-83
2023/04/10 03:37:26;;;;;;;21.60;18.10;;;;;;;13.24;67.81;101028.16;108357;1256;62452;-83
2023/04/10 03:39:55;;;;;;;21.40;16.20;;;;;;;13.24;67.81;101028.85;108601;1254;64782;-83
2023/04/10 03:42:24;;;;;;;21.10;17.10;;;;;;;13.28;67.54;101032.55;108149;1253;60445;-82
2023/04/10 03:44:53;;;;;;;21.00;16.50;;;;;;;13.32;67.54;101034.66;108165;1253;60462;-82
2023/04/10 03:47:21;;;;;;;21.70;16.70;;;;;;;13.37;67.39;101034.99;108414;1254;66280;-81
2023/04/10 03:50:02;;;;;;;22.70;18.60;;;;;;;13.38;67.41;101036.19;108979;1256;61540;-81
2023/04/10 03:52:37;;;;;;;24.80;18.40;;;;;;;13.35;67.40;101036.91;109051;1254;64036;-81
2023/04/10 03:55:09;;;;;;;24.50;19.20;;;;;;;13.32;67.63;101037.34;109006;1254;58676;-81
2023/04/10 03:57:40;;;;;;;26.30;19.70;;;;;;;13.30;67.65;101038.92;108925;1253;60310;-81
2023/04/10 04:00:10;;;;;;;24.40;18.00;;;;;;;13.28;67.56;101041.02;108629;1253;66359;-81
2023/04/10 04:02:57;;;;;;;;;;;;;;;13.33;67.42;101040.79;108946;1253;62613;-81
2023/04/10 04:05:44;;;;;;;23.30;17.60;;;;;;;13.37;67.21;101042.62;108175;1253;64805;-81
2023/04/10 04:08:28;;;;;;;23.90;18.60;;;;;;;13.38;67.29;101046.20;108162;1253;60540;-82
2023/04/10 04:11:15;;;;;;;26.40;20.10;;;;;;;13.40;67.33;101045.88;108718;1253;60377;-82
2023/04/10 04:14:06;;;;;;;25.90;19.90;;;;;;;13.38;67.22;101045.52;108348;1253;65024;-82
2023/04/10 04:17:04;;;;;;;26.40;20.20;;;;;;;13.32;67.32;101045.79;108210;1253;63380;-82
2023/04/10 04:19:53;;;;;;;24.90;19.30;;;;;;;13.27;67.30;101047.75;108451;1253;65025;-82
2023/04/10 04:22:45;;;;;;;26.40;18.00;;;;;;;13.26;67.40;101048.35;108969;1253;58312;-83
2023/04/10 04:25:33;;;;;;;25.50;16.00;;;;;;;13.31;67.03;101050.62;108591;1254;61857;-82
2023/04/10 04:28:20;;;;;;;22.30;16.70;;;;;;;13.34;66.82;101053.24;108922;1253;66172;-83
2023/04/10 04:31:12;;;;;;;22.60;17.30;;;;;;;13.32;66.97;101052.52;109217;1249;68979;-54
2023/04/10 04:34:19;;;;;;;22.90;18.30;;;;;;;13.32;66.96;101054.66;105192;1254;65010;-53
2023/04/10 04:37:06;;;;;;;21.10;16.70;;;;;;;13.26;66.83;101055.41;108477;1253;60444;-54
2023/04/10 04:39:55;;;;;;;22.20;16.70;;;;;;;13.19;66.98;101057.88;105628;1257;60552;-53
2023/04/10 04:42:24;;;;;;;21.00;16.00;;;;;;;13.22;66.92;101060.38;106455;1253;66031;-53
2023/04/10 04:45:11;;;;;;;21.80;16.40;;;;;;;13.24;66.87;101058.63;109241;1254;62992;-54
2023/04/10 04:47:59;;;;;;;21.20;16.20;;;;;;;13.19;67.00;101060.36;108689;1254;65046;-55
2023/04/10 04:50:40;;;;;;;22.30;15.80;;;;;;;13.15;67.16;101065.98;105833;1256;60377;-54
2023/04/10 04:53:21;;;;;;;21.10;16.20;;;;;;;13.09;67.31;101065.39;105444;1254;60837;-55
2023/04/10 04:55:51;;;;;;;19.90;15.60;;;;;;;13.05;67.45;101068.91;105478;1256;66538;-54
2023/04/10 04:58:38;;;;;;;20.40;15.70;;;;;;;13.07;67.33;101071.42;105655;1254;62633;-55
2023/04/10 05:01:19;;;;;;;21.80;14.90;;;;;;;13.09;67.33;101074.43;106003;1253;64738;-56
2023/04/10 05:04:14;;;;;;;25.80;14.20;;;;;;;13.08;67.30;101077.64;105721;1254;61403;-54
2023/04/10 05:06:56;;;;;;;20.70;14.90;;;;;;;13.05;67.59;101081.20;109247;1252;58633;-55
2023/04/10 05:09:38;;;;;;;24.30;15.00;;;;;;;13.05;67.77;101079.70;109188;1253;65256;-54
2023/04/10 05:12:25;;;;;;;21.20;15.10;;;;;;;13.05;67.84;101081.77;109296;1253;62342;-53
2023/04/10 05:14:59;;;;;;;20.20;14.60;;;;;;;13.06;67.74;101079.92;109134;1253;64694;-54
2023/04/10 05:17:38;;;;;;;18.10;14.20;;;;;;;13.06;67.62;101081.70;106863;1256;60559;-53
2023/04/10 05:20:35;;;;;;;21.00;13.80;;;;;;;13.13;67.42;101083.81;106508;1253;60559;-53
2023/04/10 05:23:18;;;;;;;21.50;15.70;;;;;;;13.16;67.25;101084.08;107109;1256;66127;-53
2023/04/10 05:26:05;;;;;;;19.70;14.70;;;;;;;13.14;67.22;101082.84;109171;1253;62342;-53
2023/04/10 05:29:03;;;;;;;21.00;14.70;;;;;;;13.13;67.26;101082.73;109217;1253;65049;-54
2023/04/10 05:31:58;;;;;;;20.10;15.20;;;;;;;13.13;67.33;101086.77;109157;1254;58732;-54
2023/04/10 05:34:58;;;;;;;21.90;15.50;;;;;;;13.12;67.13;101088.24;108951;1253;58500;-53
2023/04/10 05:37:49;;;;;;;23.00;14.80;;;;;;;13.17;66.96;101090.49;109311;1254;64654;-54
2023/04/10 05:40:44;;;;;;;21.70;14.70;;;;;;;13.25;66.74;101092.89;109148;1254;61354;-54
2023/04/10 05:43:31;;;;;;;22.60;16.40;;;;;;;13.26;66.68;101094.72;109266;1253;65322;-54
2023/04/10 05:51:42;;;;;;;23.30;16.50;;;;;;;12.93;67.53;101098.44;102805;1285;604982;-47
2023/04/10 05:54:42;;;;;;;26.10;16.40;;;;;;;13.00;66.88;101100.08;103655;1272;59399;-47
2023/04/10 05:57:24;;;;;;;23.10;16.00;;;;;;;13.01;66.79;101100.55;105589;1272;59366;-47
2023/04/10 06:00:10;;;;;;;23.20;16.20;;;;;;;13.00;67.05;101099.08;104750;1272;63472;-47
2023/04/10 06:02:40;;;;;;;25.40;16.30;;;;;;;13.01;67.25;101098.77;108146;1270;70375;-47
2023/04/10 06:05:12;;;;;;;21.90;17.50;;;;;;;13.03;67.22;101102.75;108052;1269;197719;-48
2023/04/10 06:07:41;;;;;;;22.20;16.30;;;;;;;13.00;67.22;101105.20;108188;1268;57159;-49
2023/04/10 06:10:09;;;;;;;24.90;17.00;;;;;;;12.98;67.16;101103.60;108256;1269;58371;-47
2023/04/10 06:12:36;;;;;;;19.70;15.60;;;;;;;13.04;66.99;101107.77;108166;1268;64618;-48
2023/04/10 06:15:05;;;;;;;21.30;16.20;;;;;;;13.12;66.97;101111.36;108178;1268;62744;-47
2023/04/10 06:17:40;;;;;;;22.50;16.20;;;;;;;13.18;66.81;101113.31;108123;1269;65780;-48
2023/04/10 06:20:08;;;;;;;26.90;17.10;;;;;;;13.22;66.84;101113.22;108198;1269;57890;-48
2023/04/10 06:22:40;;;;;;;25.40;18.00;;;;;;;13.21;66.62;101117.48;108217;1269;57370;-47
2023/04/10 06:25:10;;;;;;;29.80;17.50;;;;;;;13.19;66.72;101117.30;108183;1273;65779;-47
2023/04/10 06:27:37;;;;;;;23.40;17.70;;;;;;;13.17;66.80;101116.92;108150;1268;62454;-47
2023/04/10 06:30:10;;;;;;;26.80;17.90;;;;;;;13.17;66.87;101113.00;108162;1269;63990;-48
2023/04/10 06:32:39;;;;;;;22.50;16.40;;;;;;;13.21;66.68;101110.98;108126;1269;57467;-47
2023/04/10 06:35:07;;;;;;;25.50;16.80;;;;;;;13.27;66.69;101113.02;106765;1269;59702;-47
2023/04/10 06:37:35;;;;;;;28.00;18.00;;;;;;;13.32;66.63;101113.33;104378;1272;65414;-48
2023/04/10 06:40:12;;;;;;;26.10;16.10;;;;;;;13.31;66.58;101114.98;105040;1269;63110;-47
2023/04/10 06:42:40;;;;;;;;;;;;;;;13.26;66.64;101118.85;104337;1269;65085;-47
2023/04/10 06:45:13;;;;;;;29.20;19.30;;;;;;;13.23;66.71;101121.59;105876;1269;59539;-47
2023/04/10 06:47:40;;;;;;;25.00;17.60;;;;;;;13.16;66.84;101121.05;104590;1269;59859;-48
2023/04/10 06:50:14;;;;;;;25.50;17.60;;;;;;;13.14;66.80;101122.24;104173;1273;64242;-47
2023/04/10 06:52:43;;;;;;;27.40;18.30;;;;;;;13.15;66.93;101123.77;104467;1269;62531;-47
2023/04/10 06:55:11;;;;;;;26.90;18.30;;;;;;;13.14;67.14;101121.41;104193;1269;64902;-47
2023/04/10 06:57:58;;;;;;;29.90;19.20;;;;;;;13.09;67.07;101126.69;104281;1275;60165;-47
2023/04/10 07:00:25;;;;;;;28.90;19.90;;;;;;;13.00;67.25;101126.86;104499;1269;59544;-47
2023/04/10 07:02:53;;;;;;;29.80;19.00;;;;;;;12.93;67.54;101128.14;104350;1275;65404;-47
2023/04/10 07:05:19;;;;;;;31.70;18.30;;;;;;;12.93;67.61;101127.98;104333;1269;62668;-48
2023/04/10 07:07:46;;;;;;;25.10;19.30;;;;;;;12.93;67.70;101129.52;104436;1274;64928;-47
2023/04/10 07:10:13;;;;;;;25.60;17.70;;;;;;;12.90;67.86;101129.63;104568;1269;59634;-48
2023/04/10 07:12:40;;;;;;;31.10;19.90;;;;;;;12.85;68.03;101130.73;104411;1269;59790;-48
2023/04/10 07:15:12;;;;;;;29.00;18.10;;;;;;;12.79;68.06;101133.96;104265;1274;65369;-49
2023/04/10 07:17:40;;;;;;;28.00;18.40;;;;;;;12.75;68.25;101134.45;105052;1270;62821;-48
2023/04/10 07:20:08;;;;;;;25.60;17.80;;;;;;;12.78;68.24;101134.91;104410;1270;65350;-47
2023/04/10 07:22:42;;;;;;;26.00;17.40;;;;;;;12.82;68.21;101137.11;104292;1269;59768;-47
2023/04/10 07:25:13;;;;;;;29.30;18.60;;;;;;;12.86;68.47;101142.27;104210;1269;59679;-47
2023/04/10 07:27:40;;;;;;;25.60;16.90;;;;;;;12.91;68.77;101138.70;104532;1274;65232;-46
2023/04/10 07:30:09;;;;;;;24.90;16.60;;;;;;;12.95;68.80;101138.95;104414;1270;62614;-47
2023/04/10 07:32:41;;;;;;;23.50;15.80;;;;;;;12.95;68.68;101142.11;104536;1270;66397;-48
2023/04/10 07:35:09;;;;;;;23.90;16.50;;;;;;;12.94;68.67;101146.05;104434;1269;59680;-49
2023/04/10 07:37:42;;;;;;;24.40;15.10;;;;;;;12.94;68.67;101147.47;104836;1269;59682;-47
2023/04/10 07:40:10;;;;;;;23.30;14.00;;;;;;;12.97;68.44;101149.46;104308;1274;66127;-49
2023/04/10 07:42:36;;;;;;;22.90;14.10;;;;;;;13.05;68.38;101150.64;104457;1272;61556;-48
2023/04/10 07:45:04;;;;;;;22.50;13.40;;;;;;;13.13;68.34;101149.97;104466;1274;64664;-47
2023/04/10 07:47:31;;;;;;;19.30;13.00;;;;;;;13.20;68.57;101154.16;105271;1266;59750;-47
2023/04/10 07:49:59;;;;;;;19.50;13.40;;;;;;;13.27;68.63;101156.80;104529;1266;59784;-49
2023/04/10 07:52:26;;;;;;;23.30;14.40;;;;;;;13.33;68.65;101152.02;105441;1269;65275;-47
2023/04/10 07:54:53;;;;;;;20.80;14.00;;;;;;;13.37;68.69;101150.27;104589;1266;62438;-48
2023/04/10 07:57:23;;;;;;;17.20;11.80;;;;;;;13.52;68.66;101151.37;105087;1266;64902;-48
2023/04/10 07:59:50;;;;;;;20.10;12.60;;;;;;;13.66;68.40;101155.02;104622;1266;59669;-48
2023/04/10 08:02:17;;;;;;;24.40;13.20;;;;;;;13.78;68.34;101154.25;104526;1271;59771;-47
2023/04/10 08:04:45;;;;;;;21.30;14.50;;;;;;;13.86;68.27;101155.84;104548;1266;65960;-48
2023/04/10 08:07:12;;;;;;;19.20;14.20;;;;;;;13.95;67.96;101153.55;104621;1270;62358;-48
2023/04/10 08:09:39;;;;;;;17.00;13.40;;;;;;;14.02;67.63;101152.58;105091;1267;65063;-48
2023/04/10 08:12:07;;;;;;;20.30;13.70;;;;;;;14.05;67.18;101152.15;104716;1266;59634;-48
2023/04/10 08:17:53;;;;;;;16.30;12.20;;;;;;;13.90;67.83;101152.39;104823;1283;604905;-94
2023/04/10 08:20:55;;;;;;;19.00;12.60;;;;;;;14.17;66.60;101153.33;105406;1277;59277;-95
2023/04/10 08:23:39;;;;;;;17.20;12.10;;;;;;;14.21;66.54;101154.56;105832;1272;59399;-95
2023/04/10 08:26:28;;;;;;;17.10;12.80;;;;;;;14.24;66.34;101156.59;101320;1277;63166;-94
2023/04/10 08:29:15;;;;;;;15.30;12.60;;;;;;;14.25;66.05;101155.25;105068;1275;61712;-96
2023/04/10 08:31:59;;;;;;;16.80;12.30;;;;;;;14.23;65.76;101158.42;104755;1264;191158;-55
2023/04/10 08:34:27;;;;;;;15.60;10.90;;;;;;;14.19;65.62;101154.20;104872;1268;59256;-53
2023/04/10 08:36:54;;;;;;;11.90;9.50;;;;;;;14.20;65.66;101159.09;104947;1264;59278;-54
2023/04/10 08:39:21;;;;;;;12.90;9.90;;;;;;;14.25;65.78;101154.80;104938;1268;64305;-53
2023/04/10 08:41:48;;;;;;;11.90;9.10;;;;;;;14.33;65.78;101150.79;104915;1264;62429;-54
2023/04/10 08:44:15;;;;;;;11.50;9.30;;;;;;;14.40;65.49;101150.91;104711;1266;64868;-53
2023/04/10 08:46:44;;;;;;;14.50;10.60;;;;;;;14.45;65.73;101153.84;105010;1268;59685;-53
2023/04/10 08:49:23;;;;;;;16.70;9.70;;;;;;;14.50;65.64;101152.71;105003;1264;59719;-53
2023/04/10 08:51:57;;;;;;;12.00;8.90;;;;;;;14.59;65.47;101147.73;104425;1269;66018;-53
2023/04/10 08:54:28;;;;;;;12.80;8.40;;;;;;;14.70;65.40;101146.63;104587;1264;62709;-53
2023/04/10 08:56:55;;;;;;;8.60;6.60;;;;;;;14.90;65.27;101146.34;104791;1268;65016;-54
2023/04/10 08:59:22;;;;;;;9.60;7.70;;;;;;;15.08;64.94;101146.67;104927;1264;61506;-53
2023/04/10 09:01:49;;;;;;;9.40;7.00;;;;;;;15.25;64.56;101147.48;105557;1264;59640;-54
2023/04/10 09:04:16;;;;;;;11.10;8.00;;;;;;;15.42;63.78;101148.52;104934;1261;65685;-54
2023/04/10 09:06:44;;;;;;;8.60;6.50;;;;;;;15.58;63.13;101149.73;105023;1261;62723;-53
2023/04/10 09:09:19;;;;;;;12.60;7.30;;;;;;;15.73;62.40;101147.20;104796;1265;64034;-55
2023/04/10 09:11:55;;;;;;;11.20;7.30;;;;;;;15.82;61.95;101140.74;104840;1261;59705;-54
2023/04/10 09:14:24;;;;;;;9.30;7.10;;;;;;;15.88;61.45;101143.73;104890;1262;61115;-56
2023/04/10 09:16:51;;;;;;;10.30;7.40;;;;;;;15.90;61.16;101143.56;104811;1265;65020;-53
2023/04/10 09:19:32;;;;;;;10.10;7.60;;;;;;;15.91;61.08;101146.50;104889;1261;62664;-55
2023/04/10 09:21:59;;;;;;;9.90;6.60;;;;;;;15.95;60.42;101145.41;105034;1265;65305;-54
2023/04/10 09:24:26;;;;;;;9.90;6.50;;;;;;;15.95;60.38;101144.71;106012;1260;59595;-55
2023/04/10 09:26:54;;;;;;;8.90;6.70;;;;;;;15.92;60.29;101148.71;104850;1261;59655;-54
2023/04/10 09:29:22;;;;;;;10.80;6.30;;;;;;;15.88;60.72;101148.67;104826;1265;65078;-54
2023/04/10 09:31:49;;;;;;;12.30;7.50;;;;;;;15.86;61.10;101150.65;105635;1262;61511;-55
2023/04/10 09:34:21;;;;;;;11.50;7.00;;;;;;;15.88;60.97;101150.83;104715;1265;64919;-54
2023/04/10 09:36:58;;;;;;;8.80;6.40;;;;;;;15.92;60.69;101148.21;104891;1261;60121;-54
2023/04/10 09:39:44;;;;;;;9.00;6.20;;;;;;;15.96;60.71;101148.72;104801;1261;59670;-55
2023/04/10 09:42:11;;;;;;;7.70;4.70;;;;;;;16.02;60.64;101148.34;104623;1265;65408;-56
2023/04/10 09:44:39;;;;;;;7.90;4.30;;;;;;;16.12;60.14;101149.35;104798;1265;62581;-56
2023/04/10 09:47:12;;;;;;;7.50;4.80;;;;;;;16.22;59.43;101145.64;104990;1265;63913;-55
2023/04/10 09:49:44;;;;;;;7.20;5.10;;;;;;;16.28;58.98;101145.40;105040;1261;59766;-56
2023/04/10 09:52:17;;;;;;;9.20;4.70;;;;;;;16.36;58.71;101143.46;105344;1261;59670;-54
2023/04/10 09:54:45;;;;;;;6.10;4.30;;;;;;;16.41;57.67;101138.17;105300;1261;64363;-56
2023/04/10 09:57:17;;;;;;;8.60;6.70;;;;;;;16.45;57.05;101141.86;105143;1259;62236;-54
2023/04/10 09:59:50;;;;;;;9.00;7.00;;;;;;;16.47;57.06;101145.80;105170;1261;64794;-55
2023/04/10 10:02:18;;;;;;;10.80;7.90;;;;;;;16.46;57.16;101146.35;105102;1265;59715;-55
2023/04/10 10:04:46;;;;;;;12.00;7.70;;;;;;;16.43;57.15;101146.84;104925;1259;59718;-56
2023/04/10 10:07:18;;;;;;;12.00;8.70;;;;;;;16.41;57.60;101144.21;105711;1261;65405;-55
2023/04/10 10:09:48;;;;;;;10.50;7.60;;;;;;;16.39;57.46;101145.67;104816;1262;62320;-55
2023/04/10 10:12:18;;;;;;;10.00;8.10;;;;;;;16.38;57.26;101141.34;105208;1262;64929;-55
2023/04/10 10:15:12;;;;;;;11.80;8.20;;;;;;;16.37;57.29;101141.25;104960;1262;59678;-56
2023/04/10 10:17:44;;;;;;;10.10;6.80;;;;;;;16.42;57.91;101137.25;105569;1261;59739;-56
2023/04/10 10:20:11;;;;;;;8.70;5.80;;;;;;;16.56;57.49;101141.27;104894;1264;65131;-56
2023/04/10 10:22:47;;;;;;;8.70;6.80;;;;;;;16.70;56.95;101142.27;104749;1261;63017;-57
2023/04/10 10:25:15;;;;;;;8.90;6.70;;;;;;;16.78;56.36;101143.95;105469;1263;64959;-55
2023/04/10 10:27:42;;;;;;;8.20;6.00;;;;;;;16.81;56.08;101137.42;104924;1260;59662;-56
2023/04/10 10:30:12;;;;;;;7.40;5.40;;;;;;;16.83;55.95;101136.08;104831;1261;59755;-55
2023/04/10 10:32:57;;;;;;;8.00;5.20;;;;;;;16.87;55.98;101137.45;105067;1263;65194;-55
2023/04/10 10:35:29;;;;;;;7.20;5.40;;;;;;;16.95;56.36;101135.66;105820;1264;62335;-56
2023/04/10 10:37:59;;;;;;;7.10;4.60;;;;;;;17.04;55.94;101131.96;104745;1260;65088;-57
2023/04/10 10:40:29;;;;;;;8.70;4.80;;;;;;;17.10;55.27;101133.01;105554;1264;59624;-55
2023/04/10 10:43:08;;;;;;;7.60;4.70;;;;;;;17.12;54.89;101131.25;104910;1260;59530;-56
2023/04/10 10:46:00;;;;;;;7.50;4.20;;;;;;;17.16;54.34;101131.36;105184;1265;65377;-55
2023/04/10 10:48:27;;;;;;;5.80;3.80;;;;;;;17.18;53.99;101130.81;105122;1263;61708;-55
2023/04/10 10:50:57;;;;;;;6.30;3.80;;;;;;;17.18;53.75;101131.02;105098;1260;64829;-55
2023/04/10 10:53:35;;;;;;;6.10;3.90;;;;;;;17.20;53.74;101129.41;105473;1260;59644;-56
2023/04/10 10:56:32;;;;;;;5.90;3.80;;;;;;;17.21;53.75;101131.94;104688;1265;59527;-55
2023/04/10 10:59:00;;;;;;;7.40;4.00;;;;;;;17.22;53.22;101130.19;105501;1260;64299;-56
2023/04/10 11:01:27;;;;;;;6.10;3.70;;;;;;;17.20;53.71;101126.34;105251;1265;63395;-55
2023/04/10 11:03:56;;;;;;;8.60;3.70;;;;;;;17.23;54.00;101118.56;104440;1268;64024;-56
2023/04/10 11:06:49;;;;;;;5.50;3.40;;;;;;;17.34;54.18;101114.73;108474;1259;58124;-56
2023/04/10 11:09:47;;;;;;;6.70;3.90;;;;;;;17.45;53.52;101115.09;108504;1259;60033;-54
2023/04/10 11:12:23;;;;;;;5.40;3.20;;;;;;;17.55;53.05;101116.55;105828;1262;64595;-54
2023/04/10 11:14:59;;;;;;;4.90;2.50;;;;;;;17.65;52.56;101121.69;104604;1259;62610;-56
2023/04/10 11:17:50;;;;;;;5.10;2.80;;;;;;;17.74;52.29;101122.86;104535;1265;65166;-55
2023/04/10 11:20:20;;;;;;;5.30;2.60;;;;;;;17.84;51.68;101121.40;105080;1265;60132;-55
2023/04/10 11:23:10;;;;;;;5.90;2.80;;;;;;;17.86;50.89;101126.58;105309;1263;59792;-55
2023/04/10 11:25:51;;;;;;;5.50;3.00;;;;;;;17.77;50.60;101125.65;107651;1260;65817;-55
2023/04/10 11:28:30;;;;;;;5.90;3.00;;;;;;;17.65;50.90;101131.00;104724;1262;62511;-56
2023/04/10 11:31:21;;;;;;;6.80;3.30;;;;;;;17.48;51.64;101130.35;104648;1265;64886;-55
2023/04/10 11:34:10;;;;;;;7.30;3.70;;;;;;;17.24;52.53;101138.90;104774;1260;61178;-55
2023/04/10 11:36:38;;;;;;;4.30;2.10;;;;;;;16.99;53.96;101146.09;105685;1260;59677;-54
2023/04/10 11:39:09;;;;;;;6.70;1.80;;;;;;;16.63;52.06;101140.73;107581;1262;65194;-55
2023/04/10 11:41:38;;;;;;;7.40;2.60;;;;;;;16.16;52.60;101148.95;105365;1265;62378;-55
2023/04/10 11:44:06;;;;;;;6.00;2.60;;;;;;;15.83;54.53;101149.81;105807;1264;64727;-55
2023/04/10 11:46:40;;;;;;;5.10;2.90;;;;;;;15.64;56.19;101148.19;104804;1259;60514;-55
2023/04/10 11:49:08;;;;;;;5.40;3.00;;;;;;;15.56;57.45;101143.19;104730;1265;59715;-55
2023/04/10 11:51:36;;;;;;;5.80;3.00;;;;;;;15.57;58.26;101137.84;105191;1264;65244;-55